KSTJ

Rosecrans Memorial Airport

St Joseph, Missouri, USA
KSTJ 182337Z 1900/1924 06010KT 2SM -SN BR OVC005 TEMPO 1901/1904 1/4SM +SN FM190500 01019G30KT 1SM -SN BLSN BR OVC008 FM190800 36022G30KT 4SM BLSN BKN015 FM192100 35015G24KT P6SM SCT020
Issued Valid From Valid To
Jan-18 @ 23:37 UTC
(3 hours ago)
Jan-19 @ 00:00 UTC
(2 hours ago)
Jan-20 @ 00:00 UTC
(in 22 hours)
Jan-19 @ 00:00 to Jan-19 @ 05:00
KSTJ 182337Z 1900/1924 06010KT 2SM -SN BR OVC005
Wind Visibility Clouds Conditions
60° at 10 knots 2 miles
  • Overcast at 500' AGL
  • Light Snow
  • Mist
Temporary Jan-19 @ 01:00 to Jan-19 @ 04:00
TEMPO 1901/1904 1/4SM +SN
Visibility Conditions
1/4 miles
  • Heavy Snow
From Jan-19 @ 05:00 to Jan-19 @ 08:00
FM190500 01019G30KT 1SM -SN BLSN BR OVC008
Wind Visibility Clouds Conditions
10° at 19 knots
 Gusting to 30 knots
1 miles
  • Overcast at 800' AGL
  • Light Snow
  • Blowing
  • Snow
  • Mist
From Jan-19 @ 08:00 to Jan-19 @ 21:00
FM190800 36022G30KT 4SM BLSN BKN015
Wind Visibility Clouds Conditions
360° at 22 knots
 Gusting to 30 knots
4 miles
  • Broken at 1,500' AGL
  • Blowing
  • Snow
From Jan-19 @ 21:00 to Jan-20 @ 00:00
FM192100 35015G24KT P6SM SCT020
Wind Visibility Clouds
350° at 15 knots
 Gusting to 24 knots
Greater than 6 miles
  • Scattered at 2,000' AGL
KSTJ 182337Z 1900/1924 06010KT 2SM -SN BR OVC005 TEMPO 1901/1904 1/4SM +SN FM190500 01019G30KT 1SM -SN BLSN BR OVC008 FM190800 36022G30KT 4SM BLSN BKN015 FM192100 35015G24KT P6SM SCT020
Issued Jan-18 @ 23:37 UTC
(3 hours ago)
Valid From Jan-19 @ 00:00 UTC
(2 hours ago)
Valid To Jan-20 @ 00:00 UTC
(in 22 hours)
Jan-19 @ 00:00 - Jan-19 @ 05:00
Wind Visibility
60° at 10 knots 2 miles
Clouds
  • Overcast at 500' AGL
Conditions
  • Light Snow
  • Mist
Temporary Jan-19 @ 01:00 - Jan-19 @ 04:00
Conditions
  • Heavy Snow
From Jan-19 @ 05:00 - Jan-19 @ 08:00
Wind Visibility
10° at 19 knots
 Gusting to 30 knots
1 miles
Clouds
  • Overcast at 800' AGL
Conditions
  • Light Snow
  • Blowing
  • Snow
  • Mist
From Jan-19 @ 08:00 - Jan-19 @ 21:00
Wind Visibility
360° at 22 knots
 Gusting to 30 knots
4 miles
Clouds
  • Broken at 1,500' AGL
Conditions
  • Blowing
  • Snow
From Jan-19 @ 21:00 - Jan-20 @ 00:00
Wind Visibility
350° at 15 knots
 Gusting to 24 knots
Greater than 6 miles
Clouds
  • Scattered at 2,000' AGL